Terminal Aerodrome Forecast
Issued by NWS Amarillo, TX

Home | Current Version | Previous Version | Text Only | Print | Product List | Glossary On
Versions: 1 2 3 4 5 6 7 8 9 10 11 12 13 14 15 16 17 18 19
228
FTUS44 KAMA 300224 AAA
TAFGUY
TAF AMD
KGUY 300224Z 3002/3024 35025G35KT 6SM BR VCSH OVC009
     FM300400 34028G40KT 2SM -SN BLSN BR OVC005
     FM301600 32030G40KT P6SM -RASN OVC020
     FM302100 32035G45KT P6SM VCSH SCT020=

USA.gov is the U.S. government's official web portal to all federal, state and local government web resources and services.